createdAt,value
2022-07-28T00:00:59.678Z,74744.72
2022-07-28T00:03:27.041Z,74750.88
2022-07-28T00:05:54.497Z,74750.88
2022-07-28T00:08:22.449Z,74750.88
2022-07-28T00:10:53.261Z,74746.78
2022-07-28T00:13:23.282Z,74759.09
2022-07-28T00:15:50.869Z,74763.22
2022-07-28T00:18:18.728Z,74771.44
2022-07-28T00:20:46.013Z,74771.44
2022-07-28T00:23:13.370Z,74763.22
2022-07-28T00:25:42.227Z,74767.31
2022-07-28T00:28:09.534Z,74771.44
2022-07-28T00:30:37.130Z,74773.47
2022-07-28T00:33:04.702Z,74771.44
2022-07-28T00:35:32.154Z,74775.53
2022-07-28T00:38:00.308Z,74781.69
2022-07-28T00:40:48.121Z,74783.75
2022-07-28T00:43:15.607Z,74781.69
2022-07-28T00:45:43.034Z,74787.88
2022-07-28T00:48:10.700Z,74791.97
2022-07-28T00:50:39.263Z,74789.91
2022-07-28T00:53:07.881Z,74798.13
2022-07-28T00:56:05.631Z,74800.19
2022-07-28T00:58:23.731Z,74800.19
2022-07-28T01:00:51.074Z,74808.41
2022-07-28T01:03:18.593Z,74804.31
2022-07-28T01:06:13.754Z,74816.63
2022-07-28T01:08:59.835Z,74820.75
2022-07-28T01:11:48.681Z,74828.94
2022-07-28T01:15:00.617Z,74837.16
2022-07-28T01:17:36.686Z,74831.00
2022-07-28T01:20:07.574Z,74835.13
2022-07-28T01:22:38.885Z,74828.94
2022-07-28T01:25:23.370Z,74831.00
2022-07-28T01:28:05.965Z,74828.94
2022-07-28T01:30:35.449Z,74833.06
2022-07-28T01:33:04.905Z,74841.28
2022-07-28T01:35:39.798Z,74837.16
2022-07-28T01:38:07.628Z,74837.16
2022-07-28T01:40:35.759Z,74845.38
2022-07-28T01:43:06.105Z,74841.28
2022-07-28T01:45:38.101Z,74859.78
2022-07-28T01:48:05.786Z,74878.25
2022-07-28T01:50:33.039Z,74874.16
2022-07-28T01:53:00.328Z,74870.03
2022-07-28T01:55:30.592Z,74874.16
2022-07-28T01:57:58.087Z,74882.38
2022-07-28T02:00:25.494Z,74878.25
2022-07-28T02:02:55.118Z,74878.25
2022-07-28T02:05:22.730Z,74878.25
2022-07-28T02:07:50.147Z,74886.47
2022-07-28T02:10:17.855Z,74878.25
2022-07-28T02:12:45.580Z,74890.59
2022-07-28T02:15:13.800Z,74882.38
2022-07-28T02:17:47.756Z,74878.25
2022-07-28T02:20:15.520Z,74884.44
2022-07-28T02:22:43.998Z,74890.59
2022-07-28T02:25:18.508Z,74890.59
2022-07-28T02:27:51.098Z,74896.75
2022-07-28T02:30:31.127Z,74898.81
2022-07-28T02:33:58.761Z,74894.69
2022-07-28T02:36:36.741Z,74894.69
2022-07-28T02:39:07.793Z,74882.38
2022-07-28T02:41:38.488Z,74882.38
2022-07-28T02:44:12.394Z,74886.47
2022-07-28T02:46:43.358Z,74880.31
2022-07-28T02:49:12.800Z,74878.25
2022-07-28T02:51:41.039Z,74880.31
2022-07-28T02:54:08.441Z,74878.25
2022-07-28T02:56:35.707Z,74872.09
2022-07-28T02:59:03.182Z,74870.03
2022-07-28T03:01:31.841Z,74874.16
2022-07-28T03:03:59.404Z,74876.22
2022-07-28T03:06:28.785Z,74874.16
2022-07-28T03:08:57.461Z,74872.09
2022-07-28T03:11:25.035Z,74865.94
2022-07-28T03:13:53.843Z,74861.81
2022-07-28T03:16:21.412Z,74861.81
2022-07-28T03:18:53.704Z,74853.59
2022-07-28T03:21:21.106Z,74849.50
2022-07-28T03:23:48.569Z,74843.34
2022-07-28T03:26:20.055Z,74831.00
2022-07-28T03:28:47.661Z,74824.84
2022-07-28T03:31:15.037Z,74826.91
2022-07-28T03:33:43.806Z,74812.53
2022-07-28T03:36:16.927Z,74800.19
2022-07-28T03:38:48.809Z,74791.97
2022-07-28T03:41:16.100Z,74791.97
2022-07-28T03:43:44.048Z,74775.53
2022-07-28T03:46:13.325Z,74775.53
2022-07-28T03:48:42.641Z,74750.88
2022-07-28T03:51:09.908Z,74740.59
2022-07-28T03:53:37.257Z,74734.44
2022-07-28T03:56:05.155Z,74738.56
2022-07-28T03:58:32.536Z,74730.34
2022-07-28T04:00:59.856Z,74726.22
2022-07-28T04:03:42.999Z,74707.72
2022-07-28T04:06:12.606Z,74701.56
2022-07-28T04:08:39.924Z,74709.78
2022-07-28T04:11:07.343Z,74699.50
2022-07-28T04:13:36.862Z,74689.25
2022-07-28T04:16:05.008Z,74683.06
2022-07-28T04:18:32.379Z,74670.75
2022-07-28T04:20:59.616Z,74662.53
2022-07-28T04:23:26.977Z,74652.25
2022-07-28T04:25:54.655Z,74639.94
2022-07-28T04:28:22.751Z,74627.59
2022-07-28T04:30:50.160Z,74635.81
2022-07-28T04:33:19.535Z,74631.72
2022-07-28T04:35:47.170Z,74623.50
2022-07-28T04:38:15.142Z,74619.38
2022-07-28T04:40:42.657Z,74598.84
2022-07-28T04:43:13.232Z,74594.75
2022-07-28T04:45:46.088Z,74574.19
2022-07-28T04:48:23.018Z,74568.03
2022-07-28T04:50:52.592Z,74557.75
2022-07-28T04:53:20.851Z,74547.47
2022-07-28T04:55:49.437Z,74561.88
2022-07-28T04:58:18.745Z,74568.03
2022-07-28T05:00:49.909Z,74551.59
2022-07-28T05:03:18.482Z,74524.88
2022-07-28T05:05:47.161Z,74526.94
2022-07-28T05:08:22.143Z,74526.94
2022-07-28T05:10:55.010Z,74500.22
2022-07-28T05:13:22.807Z,74494.06
2022-07-28T05:15:51.172Z,74494.06
2022-07-28T05:18:20.868Z,74485.84
2022-07-28T05:20:48.150Z,74487.91
2022-07-28T05:23:17.625Z,74485.84
2022-07-28T05:25:44.981Z,74467.34
2022-07-28T05:28:12.389Z,74463.25
2022-07-28T05:30:40.221Z,74446.81
2022-07-28T05:33:07.509Z,74444.75
2022-07-28T05:35:35.300Z,74436.53
2022-07-28T05:38:06.273Z,74426.28
2022-07-28T05:40:36.217Z,74405.72
2022-07-28T05:43:03.481Z,74405.72
2022-07-28T05:45:31.056Z,74395.47
2022-07-28T05:47:58.323Z,74381.06
2022-07-28T05:50:26.591Z,74370.81
2022-07-28T05:52:54.255Z,74368.75
2022-07-28T05:55:21.539Z,74389.28
2022-07-28T05:57:49.731Z,74379.03
2022-07-28T06:00:18.772Z,74360.53
2022-07-28T06:02:47.311Z,74356.44
2022-07-28T06:05:17.083Z,74348.22
2022-07-28T06:07:49.587Z,74335.88
2022-07-28T06:10:18.367Z,74344.09
2022-07-28T06:12:48.528Z,74329.72
2022-07-28T06:15:21.545Z,74294.78
2022-07-28T06:17:52.542Z,74286.56
2022-07-28T06:20:23.594Z,74311.22
2022-07-28T06:22:54.994Z,74294.78
2022-07-28T06:25:27.443Z,74290.69
2022-07-28T06:27:56.205Z,74290.69
2022-07-28T06:30:23.595Z,74290.69
2022-07-28T06:32:51.382Z,74288.63
2022-07-28T06:35:18.907Z,74282.47
2022-07-28T06:37:47.493Z,74257.81
2022-07-28T06:40:15.864Z,74224.94
2022-07-28T06:42:43.876Z,74229.06
2022-07-28T06:45:19.734Z,74218.78
2022-07-28T06:47:49.936Z,74216.72
2022-07-28T06:50:25.120Z,74220.84
2022-07-28T06:52:57.064Z,74202.34
2022-07-28T06:55:28.511Z,74183.88
2022-07-28T06:58:02.455Z,74192.09
2022-07-28T07:00:29.953Z,74175.66
2022-07-28T07:02:57.641Z,74151.00
2022-07-28T07:05:25.947Z,74148.94
2022-07-28T07:07:53.796Z,74146.88
2022-07-28T07:10:21.356Z,74134.56
2022-07-28T07:13:14.561Z,74118.13
2022-07-28T07:15:44.891Z,74126.34
2022-07-28T07:18:12.180Z,74116.06
2022-07-28T07:20:39.772Z,74091.41
2022-07-28T07:23:07.517Z,74066.78
2022-07-28T07:25:35.794Z,74089.38
2022-07-28T07:28:03.103Z,74085.25
2022-07-28T07:30:31.454Z,74064.72
2022-07-28T07:32:58.727Z,74058.56
2022-07-28T07:35:28.058Z,74064.72
2022-07-28T07:37:56.146Z,74040.06
2022-07-28T07:40:24.373Z,74048.28
2022-07-28T07:42:52.159Z,74040.06
2022-07-28T07:45:19.583Z,74044.19
2022-07-28T07:47:47.837Z,74042.13
2022-07-28T07:50:15.828Z,74007.22
2022-07-28T07:52:43.098Z,73990.78
2022-07-28T07:55:12.331Z,73957.91
2022-07-28T07:57:40.001Z,73955.84
2022-07-28T08:00:08.160Z,73941.47
2022-07-28T08:02:55.458Z,73945.59
2022-07-28T08:05:34.767Z,73931.19
2022-07-28T08:08:02.573Z,73920.94
2022-07-28T08:10:30.006Z,73902.44
2022-07-28T08:12:58.414Z,73896.28
2022-07-28T08:15:27.536Z,73892.19
2022-07-28T08:17:57.881Z,73873.69
2022-07-28T08:20:25.141Z,73846.97
2022-07-28T08:22:54.309Z,73805.91
2022-07-28T08:25:22.014Z,73818.22
2022-07-28T08:27:49.389Z,73801.78
2022-07-28T08:30:22.988Z,73781.25
2022-07-28T08:32:56.442Z,73787.41
2022-07-28T08:35:34.644Z,73773.03
2022-07-28T08:38:05.710Z,73752.50
2022-07-28T08:40:33.081Z,73764.81
2022-07-28T08:43:23.295Z,73764.81
2022-07-28T08:45:56.235Z,73748.38
2022-07-28T08:48:28.923Z,73766.88
2022-07-28T08:50:56.486Z,73746.34
2022-07-28T08:53:23.914Z,73723.75
2022-07-28T08:55:51.352Z,73670.34
2022-07-28T08:58:18.624Z,73653.91
2022-07-28T09:00:46.376Z,73621.06
2022-07-28T09:03:13.918Z,73629.25
2022-07-28T09:05:44.117Z,73608.72
2022-07-28T09:08:12.638Z,73579.97
2022-07-28T09:10:39.986Z,73522.47
2022-07-28T09:13:17.128Z,73553.28
2022-07-28T09:15:46.554Z,73499.88
2022-07-28T09:18:14.568Z,73479.34
2022-07-28T09:20:44.125Z,73555.31
2022-07-28T09:23:41.741Z,73631.31
2022-07-28T09:26:10.895Z,73666.22
2022-07-28T09:28:58.743Z,73600.50
2022-07-28T09:31:28.102Z,73530.69
2022-07-28T09:34:00.992Z,73469.06
2022-07-28T09:36:29.939Z,73393.06
2022-07-28T09:38:57.209Z,73477.28
2022-07-28T09:41:25.302Z,73633.38
2022-07-28T09:43:56.102Z,73674.44
2022-07-28T09:46:25.517Z,73653.91
2022-07-28T09:48:58.000Z,73655.97
2022-07-28T09:51:30.651Z,73518.34
2022-07-28T09:54:15.128Z,73247.25
2022-07-28T09:56:46.427Z,73066.53
2022-07-28T09:59:15.043Z,72922.78
2022-07-28T10:02:01.595Z,72705.13
2022-07-28T10:04:47.802Z,72623.00
2022-07-28T10:07:17.274Z,72553.19
2022-07-28T10:10:03.864Z,72742.09
2022-07-28T10:12:32.623Z,72783.16
2022-07-28T10:15:31.526Z,72672.28
2022-07-28T10:17:58.926Z,72503.91
2022-07-28T10:20:27.610Z,72670.22
2022-07-28T10:23:01.740Z,72594.25
2022-07-28T10:25:30.313Z,72376.63
2022-07-28T10:27:59.367Z,72310.91
2022-07-28T10:30:31.627Z,72097.41
2022-07-28T10:32:59.329Z,72204.16
2022-07-28T10:35:26.985Z,72419.72
2022-07-28T10:38:06.342Z,72795.47
2022-07-28T10:40:36.356Z,72655.84
2022-07-28T10:43:03.643Z,72464.91
2022-07-28T10:46:02.675Z,72300.66
2022-07-28T10:48:18.386Z,72191.84
2022-07-28T10:50:45.749Z,72200.03
2022-07-28T10:53:13.040Z,72220.56
2022-07-28T10:55:50.541Z,72354.03
2022-07-28T10:58:24.777Z,72280.13
2022-07-28T11:00:56.821Z,72191.84
2022-07-28T11:03:44.315Z,72002.97
2022-07-28T11:06:39.860Z,72245.22
2022-07-28T11:09:16.250Z,72206.22
2022-07-28T11:11:54.163Z,72335.56
2022-07-28T11:14:33.914Z,72380.72
2022-07-28T11:17:12.077Z,72479.28
2022-07-28T11:19:55.935Z,72179.50
2022-07-28T11:22:33.935Z,72204.16
2022-07-28T11:25:20.749Z,72052.22
2022-07-28T11:27:53.488Z,71966.00
2022-07-28T11:30:33.009Z,72101.50
2022-07-28T11:33:01.092Z,71998.84
2022-07-28T11:35:33.125Z,72076.88
2022-07-28T11:38:00.520Z,72031.69
2022-07-28T11:40:33.859Z,72015.28
2022-07-28T11:43:37.000Z,71849.00
2022-07-28T11:46:10.404Z,71871.56
2022-07-28T11:48:44.729Z,72175.41
2022-07-28T11:51:12.842Z,72294.50
2022-07-28T11:53:51.526Z,71992.69
2022-07-28T11:56:36.192Z,71966.00
2022-07-28T11:59:05.743Z,71803.84
2022-07-28T12:01:36.889Z,71810.00
2022-07-28T12:04:13.516Z,71810.00
2022-07-28T12:06:51.308Z,72005.00
2022-07-28T12:09:26.815Z,72204.16
2022-07-28T12:11:56.791Z,72347.88
2022-07-28T12:14:29.511Z,72306.81
2022-07-28T12:16:56.869Z,72337.59
2022-07-28T12:19:32.752Z,72315.03
2022-07-28T12:22:00.470Z,72349.91
2022-07-28T12:24:28.461Z,72134.34
2022-07-28T12:27:00.688Z,72037.84
2022-07-28T12:29:32.324Z,72035.81
2022-07-28T12:32:09.758Z,71795.63
2022-07-28T12:34:39.969Z,71896.22
2022-07-28T12:37:10.023Z,71961.91
2022-07-28T12:39:42.254Z,72041.97
2022-07-28T12:42:13.583Z,72122.03
2022-07-28T12:44:47.517Z,72179.50
2022-07-28T12:47:17.682Z,72117.94
2022-07-28T12:49:45.124Z,72017.31
2022-07-28T12:52:22.474Z,72216.47
2022-07-28T12:54:55.578Z,72269.84
2022-07-28T12:57:49.361Z,72117.94
2022-07-28T13:00:24.039Z,71908.53
2022-07-28T13:02:56.037Z,72013.22
2022-07-28T13:05:33.453Z,72007.06
2022-07-28T13:08:03.179Z,71881.84
2022-07-28T13:10:45.861Z,71842.84
2022-07-28T13:13:13.445Z,71822.31
2022-07-28T13:15:42.503Z,71846.94
2022-07-28T13:18:09.862Z,72200.03
2022-07-28T13:20:53.923Z,72103.56
2022-07-28T13:23:21.367Z,72175.41
2022-07-28T13:25:52.277Z,72080.97
2022-07-28T13:28:24.124Z,72097.41
2022-07-28T13:30:51.846Z,72165.16
2022-07-28T13:33:19.449Z,72540.88
2022-07-28T13:35:50.241Z,72584.00
2022-07-28T13:38:18.152Z,72672.28
2022-07-28T13:40:45.631Z,72990.56
2022-07-28T13:43:14.373Z,73124.03
2022-07-28T13:45:42.650Z,73239.03
2022-07-28T13:48:10.027Z,73325.31
2022-07-28T13:50:40.764Z,73345.84
2022-07-28T13:53:27.160Z,73317.09
2022-07-28T13:55:56.150Z,73197.97
2022-07-28T13:58:24.216Z,73052.16
2022-07-28T14:00:51.701Z,73066.53
2022-07-28T14:03:19.079Z,72898.16
2022-07-28T14:05:46.385Z,72777.00
2022-07-28T14:11:12.544Z,72499.81
2022-07-28T14:13:42.119Z,72466.94
2022-07-28T14:16:14.400Z,72538.81
2022-07-28T14:18:42.009Z,72659.97
2022-07-28T14:21:09.377Z,72649.69
2022-07-28T14:23:38.080Z,72832.44
2022-07-28T14:26:33.229Z,72659.97
2022-07-28T14:28:53.386Z,72793.44
2022-07-28T14:31:20.978Z,73037.78
2022-07-28T14:33:54.241Z,73000.81
2022-07-28T14:36:22.230Z,72910.47
2022-07-28T14:38:53.562Z,72910.47
2022-07-28T14:41:25.970Z,73019.31
2022-07-28T14:43:53.299Z,73091.19
2022-07-28T14:46:22.181Z,73107.63
2022-07-28T14:48:57.338Z,72996.72
2022-07-28T14:51:24.978Z,72967.97
2022-07-28T14:53:52.398Z,73017.25
2022-07-28T14:56:20.312Z,73070.66
2022-07-28T14:58:47.869Z,73072.69
2022-07-28T15:01:15.209Z,73025.47
2022-07-28T15:03:43.122Z,72967.97
2022-07-28T15:06:11.052Z,72957.69
2022-07-28T15:08:38.434Z,73082.97
2022-07-28T15:11:09.136Z,72976.19
2022-07-28T15:13:36.457Z,73066.53
2022-07-28T15:16:06.477Z,72943.31
2022-07-28T15:18:36.731Z,73054.22
2022-07-28T15:21:06.549Z,73122.00
2022-07-28T15:23:34.406Z,73183.59
2022-07-28T15:26:01.746Z,73193.88
2022-07-28T15:28:29.351Z,73226.72
2022-07-28T15:30:56.808Z,73284.22
2022-07-28T15:33:25.531Z,73317.09
2022-07-28T15:35:58.209Z,73347.88
2022-07-28T15:38:31.968Z,73331.47
2022-07-28T15:40:59.849Z,73312.97
2022-07-28T15:43:32.814Z,73347.88
2022-07-28T15:46:03.567Z,73481.38
2022-07-28T15:48:30.725Z,73577.91
2022-07-28T15:50:58.422Z,73664.19
2022-07-28T15:53:25.709Z,73686.78
2022-07-28T15:55:53.312Z,73736.06
2022-07-28T15:58:21.419Z,73711.41
2022-07-28T16:00:52.541Z,73771.00
2022-07-28T16:03:22.660Z,73781.25
2022-07-28T16:05:50.297Z,73777.16
2022-07-28T16:08:18.562Z,73820.28
2022-07-28T16:10:52.576Z,73822.34
2022-07-28T16:13:32.142Z,73779.19
2022-07-28T16:16:09.718Z,73814.13
2022-07-28T16:18:37.769Z,73859.31
2022-07-28T16:21:05.649Z,73859.31
2022-07-28T16:23:33.416Z,73908.59
2022-07-28T16:26:04.180Z,73888.06
2022-07-28T16:28:31.562Z,73883.97
2022-07-28T16:30:58.904Z,73962.00
2022-07-28T16:33:26.518Z,73949.69
2022-07-28T16:35:54.297Z,73957.91
2022-07-28T16:38:21.730Z,73953.78
2022-07-28T16:40:49.031Z,73947.63
2022-07-28T16:43:16.452Z,74015.41
2022-07-28T16:45:44.401Z,74035.97
2022-07-28T16:51:03.187Z,74027.75
2022-07-28T16:53:30.741Z,74027.75
2022-07-28T16:55:58.036Z,74044.19
2022-07-28T16:58:25.351Z,74064.72
2022-07-28T17:00:52.660Z,74056.50
2022-07-28T17:03:20.619Z,74077.03
2022-07-28T17:05:48.568Z,74072.94
2022-07-28T17:08:16.924Z,74072.94
2022-07-28T17:10:47.384Z,74091.41
2022-07-28T17:13:16.290Z,74126.34
2022-07-28T17:15:44.300Z,74148.94
2022-07-28T17:18:14.258Z,74173.59
2022-07-28T17:20:47.535Z,74192.09
2022-07-28T17:23:15.635Z,74204.41
2022-07-28T17:26:20.404Z,74224.94
2022-07-28T17:28:33.944Z,74200.28
2022-07-28T17:31:01.756Z,74204.41
2022-07-28T17:33:29.241Z,74208.50
2022-07-28T17:35:58.649Z,74241.38
2022-07-28T17:38:32.525Z,74261.94
2022-07-28T17:43:55.322Z,74224.94
2022-07-28T17:46:23.183Z,74237.28
2022-07-28T17:48:54.589Z,74239.31
2022-07-28T17:51:22.072Z,74286.56
2022-07-28T17:53:50.345Z,74327.66
2022-07-28T17:56:22.923Z,74340.00
2022-07-28T17:58:54.043Z,74329.72
2022-07-28T18:01:21.412Z,74321.50
2022-07-28T18:03:56.929Z,74319.44
2022-07-28T18:06:32.551Z,74344.09
2022-07-28T18:09:06.602Z,74311.22
2022-07-28T18:11:56.525Z,74331.78
2022-07-28T18:14:30.134Z,74321.50
2022-07-28T18:16:57.911Z,74340.00
2022-07-28T18:19:29.091Z,74340.00
2022-07-28T18:21:56.693Z,74327.66
2022-07-28T18:24:24.205Z,74329.72
2022-07-28T18:26:51.786Z,74329.72
2022-07-28T18:29:21.199Z,74344.09
2022-07-28T18:31:52.197Z,74372.84
2022-07-28T18:34:23.093Z,74397.50
2022-07-28T18:36:53.441Z,74385.19
2022-07-28T18:39:20.931Z,74385.19
2022-07-28T18:41:48.755Z,74422.16
2022-07-28T18:44:17.815Z,74416.00
2022-07-28T18:46:46.630Z,74420.09
2022-07-28T18:49:15.022Z,74432.44
2022-07-28T18:51:44.905Z,74442.72
2022-07-28T18:54:24.765Z,74455.03
2022-07-28T18:56:56.279Z,74455.03
2022-07-28T18:59:23.896Z,74452.97
2022-07-28T19:01:53.255Z,74455.03
2022-07-28T19:04:20.657Z,74469.41
2022-07-28T19:06:48.068Z,74473.53
2022-07-28T19:09:16.088Z,74463.25
2022-07-28T19:11:46.188Z,74483.78
2022-07-28T19:14:15.866Z,74494.06
2022-07-28T19:16:43.943Z,74479.69
2022-07-28T19:19:14.701Z,74487.91
2022-07-28T19:21:43.332Z,74496.13
2022-07-28T19:24:12.986Z,74510.50
2022-07-28T19:26:40.823Z,74514.63
2022-07-28T19:29:10.121Z,74545.44
2022-07-28T19:31:37.585Z,74529.00
2022-07-28T19:34:11.435Z,74522.84
2022-07-28T19:36:41.672Z,74533.09
2022-07-28T19:39:09.598Z,74545.44
2022-07-28T19:41:37.425Z,74557.75
2022-07-28T19:44:04.961Z,74557.75
2022-07-28T19:46:32.482Z,74553.66
2022-07-28T19:49:00.740Z,74547.47
2022-07-28T19:51:28.542Z,74572.13
2022-07-28T19:54:00.390Z,74574.19
2022-07-28T19:56:31.616Z,74580.34
2022-07-28T19:58:59.446Z,74586.53
2022-07-28T20:01:28.198Z,74596.78
2022-07-28T20:04:01.249Z,74598.84
2022-07-28T20:06:32.337Z,74598.84
2022-07-28T20:09:00.597Z,74602.94
2022-07-28T20:11:33.082Z,74592.69
2022-07-28T20:14:01.116Z,74602.94
2022-07-28T20:16:28.467Z,74588.56
2022-07-28T20:18:59.550Z,74607.06
2022-07-28T20:21:26.991Z,74629.66
2022-07-28T20:23:55.463Z,74635.81
2022-07-28T20:26:26.214Z,74619.38
2022-07-28T20:28:55.530Z,74602.94
2022-07-28T20:31:26.630Z,74627.59
2022-07-28T20:33:54.111Z,74627.59
2022-07-28T20:36:23.981Z,74652.25
2022-07-28T20:38:56.316Z,74672.81
2022-07-28T20:41:23.625Z,74693.34
2022-07-28T20:44:11.186Z,74693.34
2022-07-28T20:46:41.581Z,74695.41
2022-07-28T20:49:09.007Z,74685.13
2022-07-28T20:51:36.282Z,74701.56
2022-07-28T20:54:04.737Z,74718.00
2022-07-28T20:56:32.335Z,74701.56
2022-07-28T20:59:06.499Z,74718.00
2022-07-28T21:01:34.436Z,74730.34
2022-07-28T21:04:01.735Z,74748.81
2022-07-28T21:06:29.358Z,74740.59
2022-07-28T21:08:59.908Z,74750.88
2022-07-28T21:11:35.010Z,74763.22
2022-07-28T21:14:04.063Z,74767.31
2022-07-28T21:16:32.262Z,74752.94
2022-07-28T21:19:00.479Z,74759.09
2022-07-28T21:21:29.843Z,74783.75
2022-07-28T21:23:57.357Z,74791.97
2022-07-28T21:26:24.647Z,74800.19
2022-07-28T21:29:10.979Z,74781.69
2022-07-28T21:32:04.856Z,74796.09
2022-07-28T21:34:29.530Z,74796.09
2022-07-28T21:37:04.826Z,74779.66
2022-07-28T21:39:34.927Z,74822.78
2022-07-28T21:42:05.679Z,74851.56
2022-07-28T21:44:34.994Z,74845.38
2022-07-28T21:47:02.719Z,74855.66
2022-07-28T21:49:31.410Z,74845.38
2022-07-28T21:51:58.726Z,74861.81
2022-07-28T21:54:26.159Z,74845.38
2022-07-28T21:56:53.841Z,74841.28
2022-07-28T21:59:21.303Z,74853.59
2022-07-28T22:01:49.609Z,74851.56
2022-07-28T22:04:17.651Z,74849.50
2022-07-28T22:06:46.592Z,74874.16
2022-07-28T22:09:14.980Z,74886.47
2022-07-28T22:11:42.594Z,74874.16
2022-07-28T22:14:09.888Z,74880.31
2022-07-28T22:16:41.300Z,74870.03
2022-07-28T22:19:11.974Z,74886.47
2022-07-28T22:21:39.566Z,74870.03
2022-07-28T22:24:07.744Z,74880.31
2022-07-28T22:26:35.167Z,74882.38
2022-07-28T22:29:05.141Z,74870.03
2022-07-28T22:31:32.681Z,74865.94
2022-07-28T22:34:00.084Z,74890.59
2022-07-28T22:36:27.704Z,74907.03
2022-07-28T22:38:55.752Z,74923.47
2022-07-28T22:41:23.342Z,74937.84
2022-07-28T22:43:50.597Z,74950.19
2022-07-28T22:46:18.547Z,74944.00
2022-07-28T22:48:46.265Z,74948.13
2022-07-28T22:51:14.429Z,74952.22
2022-07-28T22:53:41.762Z,74948.13
2022-07-28T22:56:09.651Z,74948.13
2022-07-28T22:58:36.995Z,74958.41
2022-07-28T23:01:05.915Z,74960.44
2022-07-28T23:03:34.631Z,74958.41
2022-07-28T23:06:03.835Z,74981.00
2022-07-28T23:08:31.147Z,74997.44
2022-07-28T23:10:58.821Z,75026.19
2022-07-28T23:13:27.307Z,75042.66
2022-07-28T23:15:55.696Z,75059.06
2022-07-28T23:18:22.967Z,75046.75
2022-07-28T23:20:53.306Z,75065.25
2022-07-28T23:23:21.282Z,75063.19
2022-07-28T23:25:48.589Z,75048.81
2022-07-28T23:28:17.854Z,75063.19
2022-07-28T23:30:48.143Z,75067.28
2022-07-28T23:33:55.830Z,75067.28
2022-07-28T23:36:07.078Z,75073.47
2022-07-28T23:38:40.318Z,75091.97
2022-07-28T23:41:12.398Z,75083.75
2022-07-28T23:43:40.495Z,75065.25
2022-07-28T23:46:08.443Z,75091.97
2022-07-28T23:48:35.973Z,75087.84
2022-07-28T23:51:03.354Z,75087.84
2022-07-28T23:53:39.717Z,75083.75
2022-07-28T23:56:08.375Z,75096.06
2022-07-28T23:58:35.719Z,75091.97
